Time;durP1;ratioP1;P1;durP2;ratioP2;P2;SDS_P1;SDS_P2;PMS_P1;PMS_P2;Temp;Humidity;BMP_temperature;BMP_pressure;BME280_temperature;BME280_humidity;BME280_pressure;Samples;Min_cycle;Max_cycle;Signal;HPM_P1;HPM_P2
2022/09/20 00:00:43;;;;;;;12.90;4.57;;;;;;;10.32;100.00;102166.66;4896707;29;20036;-83
2022/09/20 00:03:09;;;;;;;9.83;4.63;;;;;;;10.32;100.00;102177.38;4893410;29;20029;-82
2022/09/20 00:05:37;;;;;;;8.40;4.63;;;;;;;10.30;100.00;102169.56;4896205;29;20301;-82
2022/09/20 00:08:09;;;;;;;13.43;4.32;;;;;;;10.32;100.00;102180.06;4878417;29;20152;-82
2022/09/20 00:10:38;;;;;;;12.27;4.53;;;;;;;10.30;100.00;102173.06;4861022;29;1071231;-83
2022/09/20 00:13:05;;;;;;;13.87;4.77;;;;;;;10.26;100.00;102176.38;4880281;29;20036;-83
2022/09/20 00:15:31;;;;;;;16.57;4.57;;;;;;;10.19;100.00;102171.09;4895965;29;20380;-82
2022/09/20 00:17:57;;;;;;;11.88;4.47;;;;;;;10.11;100.00;102163.38;4896862;29;20037;-83
2022/09/20 00:20:23;;;;;;;12.55;4.53;;;;;;;10.11;100.00;102160.69;4897311;29;20483;-83
2022/09/20 00:22:49;;;;;;;12.40;4.53;;;;;;;10.15;100.00;102164.53;4897585;29;20120;-83
2022/09/20 00:25:16;;;;;;;14.60;5.30;;;;;;;10.14;100.00;102165.59;4896484;29;20038;-83
2022/09/20 00:27:41;;;;;;;11.45;4.65;;;;;;;10.18;100.00;102165.97;4900249;29;20036;-83
2022/09/20 00:30:08;;;;;;;13.97;5.27;;;;;;;10.14;100.00;102152.19;4900283;29;20032;-83
2022/09/20 00:32:33;;;;;;;16.27;5.47;;;;;;;10.19;100.00;102152.34;4903274;29;20025;-83
2022/09/20 00:35:09;;;;;;;12.93;5.30;;;;;;;10.13;100.00;102151.38;4879928;29;20080;-82
2022/09/20 00:37:40;;;;;;;17.35;4.75;;;;;;;10.17;100.00;102164.34;4882975;29;20048;-83
2022/09/20 00:40:09;;;;;;;9.63;4.70;;;;;;;10.11;100.00;102168.72;4902282;29;20028;-83
2022/09/20 00:42:35;;;;;;;12.05;4.65;;;;;;;10.07;100.00;102162.16;4897599;29;20175;-83
2022/09/20 00:45:07;;;;;;;11.68;4.70;;;;;;;10.10;100.00;102172.44;4895236;29;20048;-83
2022/09/20 00:47:52;;;;;;;10.47;4.43;;;;;;;10.08;100.00;102174.53;4862072;29;20068;-83
2022/09/20 00:50:38;;;;;;;10.80;4.17;;;;;;;10.03;100.00;102175.19;4878112;29;20289;-83
2022/09/20 00:53:13;;;;;;;9.20;4.38;;;;;;;9.94;100.00;102163.94;4892124;29;20024;-83
2022/09/20 00:55:44;;;;;;;8.60;3.90;;;;;;;9.84;100.00;102177.84;4896697;29;20037;-83
2022/09/20 00:58:13;;;;;;;15.73;4.85;;;;;;;9.71;100.00;102177.94;4896476;29;20037;-83
2022/09/20 01:00:39;;;;;;;11.50;4.25;;;;;;;9.66;100.00;102162.53;4896985;29;20032;-83
2022/09/20 01:03:08;;;;;;;10.80;4.22;;;;;;;9.71;100.00;102177.94;4895429;29;20080;-82
2022/09/20 01:05:34;;;;;;;13.82;4.45;;;;;;;9.67;100.00;102174.06;4897580;29;20037;-83
2022/09/20 01:08:01;;;;;;;11.70;4.30;;;;;;;9.67;100.00;102176.75;4879293;29;20036;-82
2022/09/20 01:10:27;;;;;;;10.90;4.47;;;;;;;9.57;100.00;102163.03;4896720;29;20136;-83
2022/09/20 01:12:53;;;;;;;11.87;4.80;;;;;;;9.60;100.00;102175.97;4896228;29;20481;-83
2022/09/20 01:15:20;;;;;;;12.60;5.15;;;;;;;9.54;100.00;102165.09;4898401;29;20105;-81
2022/09/20 01:20:29;;;;;;;13.73;4.72;;;;;;;9.55;100.00;102158.69;5296688;23;20059;-82
2022/09/20 01:23:26;;;;;;;9.93;4.43;;;;;;;9.66;100.00;102175.09;4894711;29;20536;-82
2022/09/20 01:26:00;;;;;;;15.47;4.70;;;;;;;9.70;100.00;102165.59;4898423;29;20038;-82
2022/09/20 01:28:28;;;;;;;11.60;4.70;;;;;;;9.79;100.00;102169.63;4908202;29;20333;-83
2022/09/20 01:31:25;;;;;;;10.10;4.72;;;;;;;9.82;100.00;102165.69;4896650;29;20040;-82
2022/09/20 01:33:57;;;;;;;10.35;4.82;;;;;;;9.82;100.00;102163.84;4876527;29;20488;-83
2022/09/20 01:36:49;;;;;;;13.68;4.53;;;;;;;9.89;100.00;102169.13;4893720;29;20029;-83
2022/09/20 01:39:23;;;;;;;7.03;4.40;;;;;;;9.92;100.00;102173.22;4877374;29;20534;-82
2022/09/20 01:41:59;;;;;;;13.10;4.60;;;;;;;9.93;100.00;102166.84;4879603;29;20051;-83
2022/09/20 01:44:43;;;;;;;12.57;4.53;;;;;;;9.97;100.00;102165.34;4893410;29;20033;-83
2022/09/20 01:47:31;;;;;;;14.10;4.50;;;;;;;9.98;100.00;102167.00;4896002;29;20036;-83
2022/09/20 01:50:18;;;;;;;14.48;4.70;;;;;;;10.02;100.00;102173.56;4895953;29;20481;-83
2022/09/20 01:52:55;;;;;;;11.90;4.50;;;;;;;10.00;100.00;102170.28;4895418;29;20144;-83
2022/09/20 01:55:51;;;;;;;9.87;4.50;;;;;;;10.00;100.00;102171.09;4892994;29;20305;-83
2022/09/20 01:58:22;;;;;;;9.13;4.40;;;;;;;10.02;100.00;102173.56;4893401;29;20043;-83
2022/09/20 02:01:15;;;;;;;12.32;4.28;;;;;;;10.03;100.00;102175.19;4895929;29;20024;-83
2022/09/20 02:03:49;;;;;;;14.02;4.30;;;;;;;10.04;100.00;102174.16;4893488;29;20039;-83
2022/09/20 02:06:28;;;;;;;9.82;4.60;;;;;;;10.00;100.00;102168.41;4894011;29;20033;-83
2022/09/20 02:09:15;;;;;;;10.30;4.30;;;;;;;10.07;100.00;102172.88;4864152;29;20036;-83
2022/09/20 02:11:53;;;;;;;9.73;4.38;;;;;;;10.06;100.00;102174.72;4877876;29;20036;-83
2022/09/20 02:14:47;;;;;;;13.10;4.32;;;;;;;10.06;100.00;102164.00;4893969;29;20033;-83
2022/09/20 02:17:37;;;;;;;9.38;4.28;;;;;;;10.07;100.00;102175.56;4863180;29;20393;-83
2022/09/20 02:20:32;;;;;;;14.20;4.47;;;;;;;10.06;100.00;102166.69;4871293;29;20037;-83
2022/09/20 02:23:22;;;;;;;9.33;3.87;;;;;;;9.99;100.00;102164.09;4889051;29;20876;-83
2022/09/20 02:26:25;;;;;;;11.43;3.90;;;;;;;10.02;100.00;102168.19;4893965;29;20052;-83
2022/09/20 02:29:05;;;;;;;13.02;4.45;;;;;;;10.03;100.00;102169.00;4895801;29;20037;-83
2022/09/20 02:31:42;;;;;;;10.07;4.22;;;;;;;9.97;100.00;102157.31;4891114;29;20047;-83
2022/09/20 02:34:29;;;;;;;11.27;4.38;;;;;;;10.00;100.00;102165.72;4866048;29;20032;-83
2022/09/20 02:37:20;;;;;;;11.65;4.38;;;;;;;10.00;100.00;102159.56;4895365;29;20095;-82
2022/09/20 02:40:07;;;;;;;11.95;4.40;;;;;;;10.01;100.00;102163.88;4894790;29;20059;-83
2022/09/20 02:42:47;;;;;;;11.40;4.20;;;;;;;10.00;100.00;102159.56;4893931;29;20032;-83
2022/09/20 02:45:36;;;;;;;14.45;4.45;;;;;;;9.99;100.00;102164.09;4893655;29;20041;-83
2022/09/20 02:48:06;;;;;;;9.13;4.17;;;;;;;10.00;100.00;102164.91;4877456;29;20033;-83
2022/09/20 02:50:34;;;;;;;11.03;4.13;;;;;;;10.00;100.00;102171.09;4893023;29;20297;-83
2022/09/20 02:53:21;;;;;;;11.48;4.68;;;;;;;10.01;100.00;102163.88;4892208;29;20132;-83
2022/09/20 02:56:28;;;;;;;8.80;4.28;;;;;;;10.02;100.00;102168.19;4892118;29;20564;-82
2022/09/20 02:59:03;;;;;;;8.63;3.90;;;;;;;10.03;100.00;102169.84;4800810;29;20074;-83
2022/09/20 03:01:46;;;;;;;13.43;4.45;;;;;;;10.02;100.00;102165.53;4880375;29;20043;-82
2022/09/20 03:04:25;;;;;;;9.85;3.90;;;;;;;10.03;100.00;102164.47;4891488;29;20028;-82
2022/09/20 03:07:03;;;;;;;7.88;4.38;;;;;;;10.02;100.00;102162.84;4878675;29;20032;-83
2022/09/20 03:09:43;;;;;;;9.77;4.18;;;;;;;10.03;100.00;102163.66;4893989;29;20029;-83
2022/09/20 03:12:09;;;;;;;12.75;4.40;;;;;;;10.04;100.00;102159.94;4891761;29;20091;-83
2022/09/20 03:14:59;;;;;;;10.03;3.90;;;;;;;10.03;100.00;102152.94;4875896;29;20032;-82
2022/09/20 03:17:53;;;;;;;10.30;4.38;;;;;;;10.03;100.00;102152.94;4894597;29;20055;-83
2022/09/20 03:20:46;;;;;;;10.57;4.23;;;;;;;10.05;100.00;102151.66;4843319;29;20115;-83
2022/09/20 03:23:46;;;;;;;13.23;3.90;;;;;;;10.04;100.00;102154.56;4893667;29;20312;-83
2022/09/20 03:26:17;;;;;;;14.05;4.10;;;;;;;10.03;100.00;102159.13;4894133;29;20045;-82
2022/09/20 03:28:58;;;;;;;10.68;4.22;;;;;;;10.02;100.00;102162.00;4893140;29;20029;-82
2022/09/20 03:31:56;;;;;;;10.55;4.15;;;;;;;10.01;100.00;102161.19;4906596;29;20043;-82
2022/09/20 03:34:48;;;;;;;10.23;3.90;;;;;;;9.98;100.00;102153.59;4879812;29;20033;-82
2022/09/20 03:37:37;;;;;;;11.05;4.28;;;;;;;9.93;100.00;102153.44;4893545;29;20131;-82
2022/09/20 03:40:25;;;;;;;13.57;4.30;;;;;;;9.96;100.00;102153.81;4891539;29;20493;-82
2022/09/20 03:42:52;;;;;;;16.27;4.43;;;;;;;10.00;100.00;102154.22;4893979;29;20033;-82
2022/09/20 03:45:33;;;;;;;14.85;4.50;;;;;;;10.02;100.00;102157.50;4884711;29;20055;-83
2022/09/20 03:48:44;;;;;;;11.97;4.27;;;;;;;10.03;100.00;102163.66;4876833;29;20037;-82
2022/09/20 03:51:24;;;;;;;8.93;4.57;;;;;;;10.04;100.00;102159.94;4863379;29;20348;-81
2022/09/20 03:54:30;;;;;;;13.25;4.43;;;;;;;10.04;100.00;102155.41;4875940;29;20049;-81
2022/09/20 03:57:14;;;;;;;12.18;4.88;;;;;;;10.05;100.00;102159.69;4876332;29;20041;-82
2022/09/20 04:00:09;;;;;;;11.10;4.13;;;;;;;9.99;100.00;102148.00;4877446;29;20397;-82
2022/09/20 04:02:49;;;;;;;10.13;4.75;;;;;;;10.08;100.00;102161.13;4888399;29;20096;-82
2022/09/20 04:05:21;;;;;;;13.77;4.90;;;;;;;10.07;100.00;102162.16;4896114;29;20041;-82
2022/09/20 04:08:22;;;;;;;18.38;4.88;;;;;;;10.09;100.00;102163.56;4898204;29;20031;-82
2022/09/20 04:11:14;;;;;;;15.63;5.00;;;;;;;10.12;100.00;102160.47;4861085;29;20037;-83
2022/09/20 04:14:03;;;;;;;12.23;4.90;;;;;;;10.13;100.00;102153.25;4896345;29;20405;-82
2022/09/20 04:16:31;;;;;;;21.67;5.23;;;;;;;10.13;100.00;102151.38;4846590;29;20044;-83
2022/09/20 04:19:03;;;;;;;9.80;5.03;;;;;;;10.10;100.00;102151.81;4897070;29;20309;-82
2022/09/20 04:21:38;;;;;;;16.42;5.75;;;;;;;10.13;100.00;102159.41;4896324;29;20088;-83
2022/09/20 04:24:28;;;;;;;12.23;4.90;;;;;;;10.13;100.00;102158.63;4896272;29;20385;-82
2022/09/20 04:27:28;;;;;;;10.07;4.90;;;;;;;10.09;100.00;102158.22;4897387;29;20131;-82
2022/09/20 04:30:17;;;;;;;13.95;4.80;;;;;;;10.09;100.00;102158.22;4896843;29;20129;-83
2022/09/20 04:33:05;;;;;;;12.00;4.60;;;;;;;10.12;100.00;102163.13;4895297;29;20467;-82
2022/09/20 04:36:28;;;;;;;8.77;4.20;;;;;;;10.05;100.00;102153.53;4896679;29;20032;-82
2022/09/20 04:39:02;;;;;;;13.00;4.35;;;;;;;10.07;100.00;102154.13;4897340;29;20614;-82
2022/09/20 04:41:51;;;;;;;11.10;4.35;;;;;;;10.09;100.00;102152.88;4879383;29;20032;-82
2022/09/20 04:44:28;;;;;;;9.67;4.03;;;;;;;10.07;100.00;102159.50;4895579;29;20044;-83
2022/09/20 04:47:17;;;;;;;12.17;4.50;;;;;;;10.07;100.00;102148.78;4896612;29;20335;-82
2022/09/20 04:49:58;;;;;;;8.77;4.15;;;;;;;10.07;100.00;102159.50;4896853;29;20131;-82
2022/09/20 04:52:41;;;;;;;10.27;4.55;;;;;;;10.04;100.00;102173.31;4896190;29;20088;-82
2022/09/20 04:55:38;;;;;;;11.05;4.47;;;;;;;10.00;100.00;102168.41;4895614;29;20040;-83
2022/09/20 04:58:37;;;;;;;9.82;4.22;;;;;;;9.96;100.00;102179.78;4897018;29;20500;-83
2022/09/20 05:01:15;;;;;;;11.38;4.53;;;;;;;9.92;100.00;102168.69;4895880;29;20040;-83
2022/09/20 05:04:09;;;;;;;10.63;4.20;;;;;;;9.83;100.00;102173.53;4881543;29;20036;-85
2022/09/20 05:06:56;;;;;;;11.27;4.32;;;;;;;9.91;100.00;102179.63;4871551;29;20062;-84
2022/09/20 05:09:46;;;;;;;9.50;4.55;;;;;;;9.90;100.00;102186.00;4873895;29;20075;-86
2022/09/20 05:12:26;;;;;;;17.63;4.90;;;;;;;9.88;100.00;102183.56;4878695;29;20032;-87
2022/09/20 05:15:07;;;;;;;7.37;4.27;;;;;;;9.88;100.00;102183.56;4896094;29;20316;-87
2022/09/20 05:18:03;;;;;;;9.85;4.50;;;;;;;9.87;100.00;102186.44;4895679;29;20714;-86
2022/09/20 05:20:47;;;;;;;9.57;4.70;;;;;;;9.82;100.00;102189.78;4895561;29;20033;-86
2022/09/20 05:23:37;;;;;;;13.43;4.78;;;;;;;9.77;100.00;102189.63;4895161;29;20037;-85
2022/09/20 05:26:11;;;;;;;11.23;4.78;;;;;;;9.68;100.00;102194.41;4896353;29;20031;-86
2022/09/20 05:28:40;;;;;;;13.65;4.75;;;;;;;9.59;100.00;102190.38;4896364;29;20407;-86
2022/09/20 05:31:14;;;;;;;14.48;5.32;;;;;;;9.47;100.00;102191.09;4895468;29;20041;-86
2022/09/20 05:33:49;;;;;;;11.18;5.10;;;;;;;9.42;100.00;102196.28;4894006;29;20647;-86
2022/09/20 05:36:29;;;;;;;12.38;5.15;;;;;;;9.32;100.00;102195.91;4895000;29;20035;-85
2022/09/20 05:39:08;;;;;;;9.40;5.40;;;;;;;9.27;100.00;102191.22;4893617;29;20569;-85
2022/09/20 05:41:42;;;;;;;10.20;5.73;;;;;;;9.28;100.00;102190.19;4896011;29;20292;-85
2022/09/20 05:44:29;;;;;;;11.20;5.63;;;;;;;9.39;100.00;102207.41;4895523;29;20374;-85
2022/09/20 05:47:04;;;;;;;8.57;5.28;;;;;;;9.42;100.00;102206.13;4874550;29;20060;-85
2022/09/20 05:49:58;;;;;;;10.50;5.15;;;;;;;9.39;100.00;102213.59;4873195;29;20059;-85
2022/09/20 05:52:45;;;;;;;16.35;5.88;;;;;;;9.52;100.00;102218.00;4872866;29;20032;-85
2022/09/20 05:55:29;;;;;;;12.38;6.22;;;;;;;9.62;100.00;102219.41;4872773;29;20646;-85
2022/09/20 05:58:21;;;;;;;16.27;6.40;;;;;;;9.74;100.00;102209.63;4882210;29;20028;-87
2022/09/20 06:01:08;;;;;;;11.45;6.22;;;;;;;9.93;100.00;102218.53;4894119;29;20035;-86
2022/09/20 06:03:44;;;;;;;11.75;6.13;;;;;;;10.14;100.00;102220.00;4891830;29;20491;-83
2022/09/20 06:06:22;;;;;;;15.80;6.60;;;;;;;10.29;100.00;102221.50;4893573;29;20457;-83
2022/09/20 06:09:18;;;;;;;12.07;5.90;;;;;;;10.38;100.00;102225.56;4886041;29;20317;-82
2022/09/20 06:11:59;;;;;;;12.55;5.53;;;;;;;10.49;100.00;102236.56;4871662;29;20317;-82
2022/09/20 06:14:50;;;;;;;14.38;5.80;;;;;;;10.55;100.00;102233.00;4873462;29;20041;-82
2022/09/20 06:17:25;;;;;;;10.27;5.40;;;;;;;10.61;100.00;102234.78;4869848;29;20036;-82
2022/09/20 06:20:09;;;;;;;16.08;5.18;;;;;;;10.64;100.00;102234.34;4869248;29;20040;-82
2022/09/20 06:22:42;;;;;;;9.82;4.97;;;;;;;10.66;100.00;102231.47;4873416;29;20180;-82
2022/09/20 06:25:07;;;;;;;9.70;5.25;;;;;;;10.76;100.00;102237.09;4891320;29;20047;-82
2022/09/20 06:27:44;;;;;;;6.50;4.60;;;;;;;10.79;100.00;102238.50;4866626;29;20044;-82
2022/09/20 06:30:24;;;;;;;10.82;5.30;;;;;;;10.77;100.00;102227.22;4893581;29;20373;-82
2022/09/20 06:32:54;;;;;;;8.23;3.92;;;;;;;10.87;100.00;102233.66;4892298;29;20044;-83
2022/09/20 06:35:23;;;;;;;10.32;4.50;;;;;;;10.91;100.00;102234.03;4877183;29;20036;-83
2022/09/20 06:43:37;;;;;;;9.95;4.30;;;;;;;11.17;100.00;102238.25;4894385;29;20077;-83
2022/09/20 06:46:02;;;;;;;10.48;4.28;;;;;;;11.25;100.00;102239.78;4891295;29;20044;-83
2022/09/20 06:48:29;;;;;;;8.10;4.13;;;;;;;11.35;100.00;102244.59;4892390;29;20393;-83
2022/09/20 06:50:54;;;;;;;7.85;3.92;;;;;;;11.41;100.00;102242.88;4890344;29;20511;-82
2022/09/20 06:53:31;;;;;;;8.75;4.00;;;;;;;11.47;100.00;102244.66;4894651;29;20033;-82
2022/09/20 06:55:57;;;;;;;6.07;3.67;;;;;;;11.55;100.00;102243.50;4893303;29;20119;-86
2022/09/20 06:58:23;;;;;;;10.30;3.85;;;;;;;11.61;100.00;102251.44;4894781;29;20477;-85
2022/09/20 07:00:48;;;;;;;10.73;4.27;;;;;;;11.64;100.00;102253.69;4889964;29;20128;-85
2022/09/20 07:03:13;;;;;;;7.90;3.93;;;;;;;11.65;100.00;102247.28;4893977;29;20043;-87
2022/09/20 07:05:39;;;;;;;6.30;3.80;;;;;;;11.79;100.00;102249.72;4897413;29;20381;-85
2022/09/20 07:08:04;;;;;;;7.17;3.70;;;;;;;11.86;100.00;102245.09;4894072;29;20059;-85
2022/09/20 07:10:30;;;;;;;7.60;3.65;;;;;;;11.93;100.00;102250.34;4890639;29;20067;-83
2022/09/20 07:12:58;;;;;;;7.20;3.60;;;;;;;12.02;100.00;102259.72;4887693;29;20117;-84
2022/09/20 07:15:24;;;;;;;7.43;3.50;;;;;;;12.05;100.00;102251.19;4893085;29;20036;-83
2022/09/20 07:17:49;;;;;;;8.88;3.83;;;;;;;12.20;100.00;102250.75;4893031;29;20039;-83
2022/09/20 07:20:15;;;;;;;6.30;3.70;;;;;;;12.33;100.00;102256.91;4900333;29;20424;-84
2022/09/20 07:22:40;;;;;;;6.50;3.90;;;;;;;12.39;100.00;102247.94;4913604;29;20036;-83
2022/09/20 07:25:06;;;;;;;7.95;3.63;;;;;;;12.37;100.00;102255.41;4901906;29;20064;-84
2022/09/20 07:27:31;;;;;;;5.97;3.60;;;;;;;12.47;100.00;102254.81;4893883;29;20040;-83
2022/09/20 07:29:57;;;;;;;5.20;3.30;;;;;;;12.44;100.00;102248.03;4893463;29;20037;-84
2022/09/20 07:32:22;;;;;;;7.47;3.80;;;;;;;12.58;100.00;102256.66;4894502;29;20036;-83
2022/09/20 07:34:48;;;;;;;9.85;4.30;;;;;;;12.72;100.00;102249.16;4896722;29;20041;-83
2022/09/20 07:37:16;;;;;;;9.73;4.20;;;;;;;12.75;100.00;102259.44;4898509;29;20024;-84
2022/09/20 07:39:41;;;;;;;6.43;4.00;;;;;;;12.81;100.00;102258.47;4894951;29;20032;-83
2022/09/20 07:42:08;;;;;;;9.77;3.97;;;;;;;12.74;100.00;102257.81;4897012;29;20453;-83
2022/09/20 07:44:33;;;;;;;14.43;4.20;;;;;;;12.71;100.00;102259.09;4881738;29;20401;-83
2022/09/20 07:46:59;;;;;;;9.30;4.03;;;;;;;12.65;100.00;102267.28;4898417;29;20025;-83
2022/09/20 07:49:30;;;;;;;10.55;3.80;;;;;;;12.67;100.00;102270.56;4896453;29;20046;-83
2022/09/20 07:51:56;;;;;;;8.57;4.00;;;;;;;12.84;100.00;102276.84;4898296;29;20064;-83
2022/09/20 07:54:21;;;;;;;8.65;4.30;;;;;;;13.06;100.00;102272.69;4881306;29;20507;-82
2022/09/20 07:56:46;;;;;;;7.77;3.60;;;;;;;13.19;100.00;102285.88;4895303;29;20028;-83
2022/09/20 07:59:13;;;;;;;7.20;3.87;;;;;;;13.21;100.00;102291.00;4891413;29;20028;-82
2022/09/20 08:01:40;;;;;;;6.57;3.28;;;;;;;13.02;100.00;102278.56;4903790;29;20033;-82
2022/09/20 08:04:07;;;;;;;5.28;3.55;;;;;;;12.83;100.00;102282.47;4903662;29;20033;-82
2022/09/20 08:06:36;;;;;;;6.95;3.53;;;;;;;12.68;100.00;102272.19;4902840;29;20491;-82
2022/09/20 08:09:02;;;;;;;9.38;3.50;;;;;;;12.61;100.00;102298.38;4907305;29;20442;-81
2022/09/20 08:11:29;;;;;;;10.37;3.30;;;;;;;12.51;100.00;102289.06;4910186;29;20036;-83
2022/09/20 08:13:57;;;;;;;6.95;3.63;;;;;;;12.43;100.00;102286.72;4897837;29;20025;-82
2022/09/20 08:16:23;;;;;;;11.27;3.70;;;;;;;12.41;100.00;102286.16;4897535;29;20028;-82
2022/09/20 08:18:56;;;;;;;8.33;3.47;;;;;;;12.42;100.00;102293.13;4897082;29;20117;-83
2022/09/20 08:21:23;;;;;;;8.65;3.50;;;;;;;12.40;100.00;102292.56;4895809;29;20028;-82
2022/09/20 08:23:49;;;;;;;7.88;3.30;;;;;;;12.30;100.00;102277.03;4897665;29;20471;-82
2022/09/20 08:26:17;;;;;;;5.22;2.70;;;;;;;12.35;100.00;102289.75;4898402;29;20052;-83
2022/09/20 08:28:44;;;;;;;8.35;2.85;;;;;;;12.31;100.00;102286.72;4897422;29;20029;-82
2022/09/20 08:31:20;;;;;;;9.10;3.40;;;;;;;12.34;100.00;102296.19;4880281;29;20128;-82
2022/09/20 08:33:46;;;;;;;8.93;2.92;;;;;;;12.37;100.00;102293.84;4898353;29;20067;-82
2022/09/20 08:36:14;;;;;;;8.25;2.97;;;;;;;12.42;100.00;102295.81;4903399;29;20028;-82
2022/09/20 08:38:40;;;;;;;7.10;2.90;;;;;;;12.40;100.00;102289.88;4906597;29;20357;-82
2022/09/20 08:41:11;;;;;;;8.30;2.23;;;;;;;12.42;100.00;102293.13;4907561;29;20048;-83
2022/09/20 08:43:50;;;;;;;6.37;2.10;;;;;;;12.44;100.00;102298.28;4908744;29;20299;-82
2022/09/20 08:46:19;;;;;;;5.35;1.70;;;;;;;12.42;100.00;102299.34;4913210;29;20021;-82
2022/09/20 08:48:45;;;;;;;4.90;1.65;;;;;;;12.45;99.13;102299.94;4897541;29;20025;-82
2022/09/20 08:51:14;;;;;;;5.88;1.58;;;;;;;12.48;99.14;102302.16;4880433;29;20029;-82
2022/09/20 08:53:46;;;;;;;11.05;2.00;;;;;;;12.55;100.00;102305.53;4897017;29;20055;-82
2022/09/20 08:56:12;;;;;;;10.55;1.85;;;;;;;12.64;100.00;102308.69;4897475;29;20116;-84
2022/09/20 08:58:38;;;;;;;8.77;1.57;;;;;;;12.74;99.20;102311.59;4896015;29;20119;-82
2022/09/20 09:01:04;;;;;;;7.07;1.20;;;;;;;12.77;95.47;102307.63;4896062;29;20097;-82
2022/09/20 09:03:31;;;;;;;7.28;1.15;;;;;;;12.84;91.81;102309.13;4896752;29;20104;-82
2022/09/20 09:06:00;;;;;;;8.57;1.20;;;;;;;12.88;95.26;102296.84;4885035;29;20048;-83
2022/09/20 09:08:37;;;;;;;7.40;1.35;;;;;;;13.07;95.67;102311.97;4880551;29;20119;-82
2022/09/20 09:11:11;;;;;;;4.07;1.10;;;;;;;13.18;93.21;102308.47;4896880;29;20115;-83
2022/09/20 09:13:45;;;;;;;5.80;1.10;;;;;;;13.43;94.44;102316.25;4915544;29;20284;-82
2022/09/20 09:16:15;;;;;;;5.03;1.10;;;;;;;13.74;91.86;102303.31;4915850;29;20067;-83
2022/09/20 09:18:45;;;;;;;5.72;1.20;;;;;;;14.23;88.20;102315.44;4898102;29;20115;-83
2022/09/20 09:21:28;;;;;;;9.77;1.10;;;;;;;14.94;87.72;102314.81;4894770;29;20056;-83
2022/09/20 09:24:02;;;;;;;6.90;1.42;;;;;;;15.47;80.06;102313.50;4896874;29;20127;-82
2022/09/20 09:26:34;;;;;;;3.53;0.85;;;;;;;15.73;79.58;102319.97;4896925;29;20123;-83
2022/09/20 09:36:45;;;;;;;7.27;0.80;;;;;;;15.79;70.50;102301.94;5659119;23;20044;-84
2022/09/20 09:39:30;;;;;;;4.90;1.00;;;;;;;15.81;74.04;102314.09;4914325;29;20806;-84
2022/09/20 09:42:00;;;;;;;7.20;0.93;;;;;;;15.84;70.35;102307.34;4905242;29;20091;-84
2022/09/20 09:44:28;;;;;;;5.03;0.90;;;;;;;15.94;69.14;102321.00;4895939;29;20301;-83
2022/09/20 09:46:55;;;;;;;8.50;1.10;;;;;;;15.86;66.56;102318.75;4895932;29;20481;-82
2022/09/20 09:49:22;;;;;;;7.85;1.08;;;;;;;15.73;67.70;102314.56;4886847;29;20036;-81
2022/09/20 09:52:13;;;;;;;8.45;1.00;;;;;;;15.66;69.97;102319.38;4895194;29;20043;-82
2022/09/20 09:54:46;;;;;;;4.00;0.65;;;;;;;15.59;67.71;102319.59;4899101;29;20446;-82
2022/09/20 09:57:32;;;;;;;6.72;0.90;;;;;;;15.52;69.41;102319.75;4895318;29;20473;-81
2022/09/20 10:00:30;;;;;;;6.85;0.90;;;;;;;15.60;73.28;102327.41;4900564;29;20032;-86
2022/09/20 10:03:29;;;;;;;6.65;0.85;;;;;;;15.68;73.21;102323.44;4877485;29;20527;-84
2022/09/20 10:06:09;;;;;;;7.28;1.10;;;;;;;15.60;68.10;102323.91;4905287;29;20055;-84
2022/09/20 10:08:51;;;;;;;5.93;1.10;;;;;;;15.49;69.19;102314.91;4908255;29;20024;-85
2022/09/20 10:11:16;;;;;;;5.97;1.00;;;;;;;15.49;69.85;102323.00;4906107;29;20303;-87
2022/09/20 10:13:52;;;;;;;6.65;0.85;;;;;;;15.41;71.90;102326.13;4902857;29;20408;-85
2022/09/20 10:17:08;;;;;;;7.13;1.07;;;;;;;15.35;73.57;102319.03;4883682;29;20085;-86
2022/09/20 10:19:47;;;;;;;7.32;1.10;;;;;;;15.38;70.58;102323.94;4911936;29;20036;-85
2022/09/20 10:22:50;;;;;;;10.10;1.17;;;;;;;15.45;73.55;102322.66;4906018;29;20028;-85
2022/09/20 10:26:04;;;;;;;6.57;1.00;;;;;;;15.48;70.67;102325.94;4901696;29;20196;-86
2022/09/20 10:28:47;;;;;;;6.05;1.20;;;;;;;15.41;69.30;102336.94;4904031;29;20388;-86
2022/09/20 10:31:34;;;;;;;4.72;1.00;;;;;;;15.52;73.04;102325.16;4899410;29;20511;-89
2022/09/20 10:34:21;;;;;;;7.63;1.90;;;;;;;15.70;70.46;102326.69;4906303;29;20123;-89
2022/09/20 10:36:56;;;;;;;5.80;1.27;;;;;;;15.70;70.42;102323.19;4883972;29;20055;-88
2022/09/20 10:39:29;;;;;;;6.95;1.00;;;;;;;15.76;71.37;102322.16;4888791;29;20057;-84
2022/09/20 10:45:17;;;;;;;4.90;1.13;;;;;;;15.97;72.89;102322.38;4911066;29;20315;-85
2022/09/20 10:47:56;;;;;;;4.93;0.98;;;;;;;15.89;70.30;102310.16;4905698;29;20436;-89
2022/09/20 10:50:39;;;;;;;7.05;1.23;;;;;;;16.02;71.06;102328.63;4898804;29;20040;-86
2022/09/20 10:53:35;;;;;;;6.28;1.40;;;;;;;16.17;70.71;102317.13;4902599;29;20092;-84
2022/09/20 10:56:38;;;;;;;5.82;1.02;;;;;;;16.37;70.76;102328.31;4903234;29;20052;-86
2022/09/20 10:59:34;;;;;;;7.28;1.13;;;;;;;16.31;67.31;102325.63;4836483;29;20171;-85
2022/09/20 11:02:55;;;;;;;6.43;1.10;;;;;;;16.60;68.89;102332.56;4899464;29;20539;-84
2022/09/20 11:05:39;;;;;;;9.52;1.05;;;;;;;16.73;66.04;102332.06;4847257;29;20128;-84
2022/09/20 11:08:13;;;;;;;5.40;1.10;;;;;;;16.72;65.27;102330.44;4910925;29;20024;-83
2022/09/20 11:10:50;;;;;;;5.07;1.07;;;;;;;16.55;65.08;102329.81;4903356;29;20596;-84
2022/09/20 11:13:25;;;;;;;5.47;1.10;;;;;;;16.34;64.49;102332.38;4905748;29;20757;-84
2022/09/20 11:16:02;;;;;;;6.40;1.15;;;;;;;16.16;66.93;102328.19;4883962;29;20044;-84
2022/09/20 11:18:44;;;;;;;5.97;0.77;;;;;;;16.09;65.66;102336.50;4904990;29;20040;-85
2022/09/20 11:21:22;;;;;;;5.00;0.82;;;;;;;16.11;65.89;102339.78;4902166;29;20032;-85
2022/09/20 11:23:54;;;;;;;4.95;0.80;;;;;;;16.61;65.57;102340.41;4907180;29;20036;-84
2022/09/20 11:26:41;;;;;;;3.95;1.08;;;;;;;17.10;64.22;102333.88;4900422;29;20024;-85
2022/09/20 11:29:43;;;;;;;6.15;1.00;;;;;;;17.24;64.69;102345.06;4902880;29;20029;-85
2022/09/20 11:32:23;;;;;;;2.70;0.73;;;;;;;17.00;63.06;102339.25;4900144;29;20789;-84
2022/09/20 11:34:55;;;;;;;4.90;1.02;;;;;;;16.90;62.15;102344.59;4904676;29;20435;-85
2022/09/20 11:37:32;;;;;;;4.57;1.00;;;;;;;16.82;61.47;102351.34;4902198;29;20040;-85
2022/09/20 11:40:03;;;;;;;6.20;1.00;;;;;;;16.65;60.16;102359.63;4907989;29;20371;-85
2022/09/20 11:42:34;;;;;;;2.85;1.08;;;;;;;16.63;62.01;102353.66;4903502;29;21792;-85
2022/09/20 11:45:00;;;;;;;6.68;1.10;;;;;;;16.70;59.74;102348.03;4878127;29;20389;-85
2022/09/20 11:47:46;;;;;;;4.13;0.90;;;;;;;16.79;60.48;102352.69;4886854;29;20039;-85
2022/09/20 11:50:31;;;;;;;3.03;0.87;;;;;;;16.93;62.09;102355.72;4906500;29;20300;-85
2022/09/20 11:53:10;;;;;;;2.88;0.65;;;;;;;16.85;62.00;102349.97;4914155;29;20025;-84
2022/09/20 11:55:49;;;;;;;3.70;0.90;;;;;;;16.64;61.67;102353.41;4902493;29;20035;-84
2022/09/20 11:58:20;;;;;;;5.22;1.00;;;;;;;16.38;61.06;102355.13;4879241;29;20031;-85
2022/09/20 12:00:47;;;;;;;4.47;0.70;;;;;;;16.41;62.12;102349.22;4902644;29;20035;-85
2022/09/20 12:03:39;;;;;;;3.95;0.90;;;;;;;16.47;64.11;102356.25;4898643;29;20028;-85
2022/09/20 12:06:32;;;;;;;5.90;0.88;;;;;;;16.46;65.66;102356.53;4920628;29;20058;-86
2022/09/20 12:09:05;;;;;;;3.25;0.95;;;;;;;16.39;64.80;102361.34;4905510;29;20107;-86
2022/09/20 12:11:37;;;;;;;6.10;0.88;;;;;;;16.18;64.80;102351.22;4913650;29;20039;-87
2022/09/20 12:14:17;;;;;;;3.80;0.80;;;;;;;15.85;64.32;102346.81;4916929;29;20056;-86
2022/09/20 12:16:45;;;;;;;5.00;0.90;;;;;;;15.73;65.14;102357.78;4906339;29;20352;-84
2022/09/20 12:19:47;;;;;;;4.25;1.10;;;;;;;15.54;65.17;102368.16;4913278;29;20028;-85
2022/09/20 12:22:13;;;;;;;2.97;0.80;;;;;;;15.50;65.72;102361.63;4854584;29;20053;-85
2022/09/20 12:24:38;;;;;;;4.90;1.00;;;;;;;15.62;66.34;102358.78;4888752;29;20072;-85